createdAt,value
2019-02-11T00:00:58.107Z,4.92
2019-02-11T00:03:27.511Z,4.27
2019-02-11T00:05:56.909Z,4.10
2019-02-11T00:08:27.869Z,4.53
2019-02-11T00:10:57.310Z,4.03
2019-02-11T00:13:28.237Z,3.97
2019-02-11T00:15:58.798Z,3.93
2019-02-11T00:18:30.025Z,3.60
2019-02-11T00:20:59.597Z,3.65
2019-02-11T00:23:30.184Z,4.10
2019-02-11T00:25:59.703Z,3.42
2019-02-11T00:28:30.124Z,3.60
2019-02-11T00:30:59.681Z,3.80
2019-02-11T00:33:29.102Z,3.20
2019-02-11T00:36:00.280Z,3.42
2019-02-11T00:38:29.945Z,3.10
2019-02-11T00:40:59.392Z,3.07
2019-02-11T00:43:28.796Z,3.30
2019-02-11T00:45:59.002Z,3.13
2019-02-11T00:48:29.505Z,3.30
2019-02-11T00:50:58.895Z,2.98
2019-02-11T00:53:28.381Z,2.65
2019-02-11T00:55:57.841Z,2.63
2019-02-11T00:58:27.231Z,2.97
2019-02-11T01:00:57.671Z,2.87
2019-02-11T01:03:28.166Z,2.80
2019-02-11T01:05:57.582Z,2.67
2019-02-11T01:08:28.162Z,2.77
2019-02-11T01:10:57.634Z,2.23
2019-02-11T01:13:28.000Z,2.47
2019-02-11T01:16:00.581Z,2.40
2019-02-11T01:18:31.822Z,2.10
2019-02-11T01:21:02.242Z,2.40
2019-02-11T01:23:31.855Z,2.52
2019-02-11T01:26:01.254Z,2.27
2019-02-11T01:28:30.771Z,2.70
2019-02-11T01:31:00.374Z,2.05
2019-02-11T01:33:31.587Z,2.35
2019-02-11T01:36:01.125Z,2.27
2019-02-11T01:38:32.591Z,2.15
2019-02-11T01:41:01.977Z,2.60
2019-02-11T01:43:36.042Z,2.87
2019-02-11T01:46:04.291Z,2.10
2019-02-11T01:48:34.029Z,2.10
2019-02-11T01:51:03.663Z,2.40
2019-02-11T01:53:33.214Z,2.40
2019-02-11T01:56:03.594Z,2.25
2019-02-11T01:58:34.097Z,2.40
2019-02-11T02:01:03.563Z,2.20
2019-02-11T02:03:33.002Z,2.23
2019-02-11T02:06:02.384Z,2.23
2019-02-11T02:08:31.855Z,2.67
2019-02-11T02:11:02.304Z,2.70
2019-02-11T02:13:31.907Z,2.10
2019-02-11T02:16:03.274Z,2.40
2019-02-11T02:18:36.278Z,2.90
2019-02-11T02:21:05.658Z,2.73
2019-02-11T02:23:35.302Z,2.65
2019-02-11T02:26:07.944Z,2.77
2019-02-11T02:28:37.413Z,2.50
2019-02-11T02:31:06.982Z,3.45
2019-02-11T02:33:38.366Z,2.60
2019-02-11T02:36:07.767Z,2.90
2019-02-11T02:38:37.536Z,2.73
2019-02-11T02:41:07.004Z,2.77
2019-02-11T02:43:36.470Z,2.83
2019-02-11T02:46:07.392Z,3.35
2019-02-11T02:48:37.930Z,2.80
2019-02-11T02:51:08.826Z,3.00
2019-02-11T02:53:39.857Z,3.03
2019-02-11T02:56:10.961Z,2.63
2019-02-11T02:58:40.414Z,3.40
2019-02-11T03:01:10.026Z,3.33
2019-02-11T03:03:40.551Z,3.40
2019-02-11T03:06:10.996Z,3.30
2019-02-11T03:08:41.726Z,3.00
2019-02-11T03:11:11.103Z,3.40
2019-02-11T03:13:40.507Z,3.17
2019-02-11T03:16:09.951Z,3.52
2019-02-11T03:18:39.410Z,3.33
2019-02-11T03:21:08.813Z,3.40
2019-02-11T03:23:38.564Z,3.10
2019-02-11T03:26:09.422Z,2.83
2019-02-11T03:28:39.943Z,3.92
2019-02-11T03:31:09.541Z,2.80
2019-02-11T03:33:38.935Z,3.15
2019-02-11T03:36:08.309Z,3.37
2019-02-11T03:38:38.847Z,3.17
2019-02-11T03:41:08.408Z,3.20
2019-02-11T03:43:39.273Z,3.17
2019-02-11T03:46:08.855Z,2.90
2019-02-11T03:48:39.351Z,2.80
2019-02-11T03:51:09.849Z,2.93
2019-02-11T03:53:39.642Z,2.80
2019-02-11T03:56:11.513Z,3.47
2019-02-11T03:58:43.063Z,3.50
2019-02-11T04:01:14.228Z,2.77
2019-02-11T04:03:43.623Z,2.73
2019-02-11T04:06:13.119Z,2.63
2019-02-11T04:08:43.783Z,3.00
2019-02-11T04:11:13.321Z,3.57
2019-02-11T04:13:44.629Z,3.27
2019-02-11T04:16:16.072Z,3.10
2019-02-11T04:18:46.707Z,3.17
2019-02-11T04:21:16.110Z,2.40
2019-02-11T04:23:46.815Z,2.37
2019-02-11T04:26:16.219Z,2.90
2019-02-11T04:28:45.620Z,3.73
2019-02-11T04:31:15.187Z,2.97
2019-02-11T04:33:46.289Z,2.90
2019-02-11T04:36:17.242Z,2.77
2019-02-11T04:38:47.884Z,3.40
2019-02-11T04:41:18.530Z,3.20
2019-02-11T04:43:47.925Z,2.47
2019-02-11T04:46:17.423Z,3.00
2019-02-11T04:48:47.861Z,3.27
2019-02-11T04:51:17.359Z,3.77
2019-02-11T04:53:46.810Z,3.60
2019-02-11T04:56:16.288Z,3.60
2019-02-11T04:58:49.169Z,2.83
2019-02-11T05:01:18.689Z,3.93
2019-02-11T05:03:49.893Z,3.33
2019-02-11T05:06:22.884Z,3.93
2019-02-11T05:08:55.339Z,3.57
2019-02-11T05:11:24.918Z,3.60
2019-02-11T05:13:56.678Z,3.93
2019-02-11T05:16:26.284Z,3.30
2019-02-11T05:18:55.788Z,4.03
2019-02-11T05:21:25.213Z,3.90
2019-02-11T05:23:55.160Z,3.97
2019-02-11T05:26:24.929Z,3.87
2019-02-11T05:28:56.258Z,4.12
2019-02-11T05:31:27.739Z,3.73
2019-02-11T05:33:58.138Z,3.73
2019-02-11T05:36:28.660Z,3.90
2019-02-11T05:38:58.208Z,3.20
2019-02-11T05:41:27.598Z,4.40
2019-02-11T05:43:56.978Z,4.60
2019-02-11T05:46:27.646Z,4.33
2019-02-11T05:49:00.412Z,3.73
2019-02-11T05:51:32.865Z,4.73
2019-02-11T05:54:04.354Z,3.77
2019-02-11T05:56:33.770Z,4.65
2019-02-11T05:59:03.575Z,4.13
2019-02-11T06:01:33.112Z,4.78
2019-02-11T06:04:02.499Z,3.90
2019-02-11T06:06:32.020Z,4.10
2019-02-11T06:09:02.791Z,4.70
2019-02-11T06:11:32.274Z,4.50
2019-02-11T06:14:01.661Z,4.70
2019-02-11T06:16:31.391Z,4.40
2019-02-11T06:19:02.529Z,4.03
2019-02-11T06:21:31.985Z,4.28
2019-02-11T06:24:03.007Z,4.33
2019-02-11T06:26:33.486Z,4.50
2019-02-11T06:29:03.133Z,4.72
2019-02-11T06:31:32.818Z,4.40
2019-02-11T06:34:02.325Z,5.07
2019-02-11T06:36:31.708Z,4.17
2019-02-11T06:39:04.617Z,5.20
2019-02-11T06:41:34.187Z,4.85
2019-02-11T06:44:03.541Z,5.10
2019-02-11T06:46:33.345Z,5.03
2019-02-11T06:49:04.216Z,5.03
2019-02-11T06:51:33.634Z,4.93
2019-02-11T06:54:03.081Z,4.50
2019-02-11T06:56:32.544Z,5.42
2019-02-11T06:59:03.878Z,4.53
2019-02-11T07:01:35.196Z,4.93
2019-02-11T07:04:07.199Z,5.30
2019-02-11T07:06:36.781Z,5.17
2019-02-11T07:09:07.395Z,5.10
2019-02-11T07:11:36.794Z,5.23
2019-02-11T07:14:06.656Z,4.90
2019-02-11T07:16:36.172Z,4.40
2019-02-11T07:19:08.200Z,4.85
2019-02-11T07:21:37.627Z,4.93
2019-02-11T07:24:07.085Z,5.28
2019-02-11T07:26:37.575Z,5.45
2019-02-11T07:29:06.956Z,5.30
2019-02-11T07:31:36.698Z,5.70
2019-02-11T07:34:07.095Z,5.53
2019-02-11T07:36:37.953Z,5.30
2019-02-11T07:39:12.160Z,4.77
2019-02-11T07:41:59.268Z,5.47
2019-02-11T07:44:37.447Z,5.20
2019-02-11T07:47:07.337Z,4.50
2019-02-11T07:49:40.062Z,5.12
2019-02-11T07:52:11.536Z,5.13
2019-02-11T07:54:42.098Z,5.60
2019-02-11T07:57:11.571Z,5.30
2019-02-11T07:59:41.178Z,5.50
2019-02-11T08:02:13.073Z,4.83
2019-02-11T08:04:42.470Z,4.80
2019-02-11T08:07:12.080Z,5.07
2019-02-11T08:09:41.486Z,5.43
2019-02-11T08:12:11.989Z,4.75
2019-02-11T08:14:43.509Z,5.10
2019-02-11T08:17:13.906Z,4.15
2019-02-11T08:19:43.346Z,4.90
2019-02-11T08:22:14.349Z,4.77
2019-02-11T08:24:43.878Z,4.47
2019-02-11T08:27:13.466Z,5.23
2019-02-11T08:29:46.177Z,5.00
2019-02-11T08:32:17.284Z,4.93
2019-02-11T08:34:48.455Z,4.60
2019-02-11T08:37:19.209Z,5.40
2019-02-11T08:39:48.607Z,4.63
2019-02-11T08:42:19.401Z,4.30
2019-02-11T08:44:49.164Z,4.87
2019-02-11T08:47:19.559Z,4.83
2019-02-11T08:49:50.603Z,5.20
2019-02-11T08:52:20.329Z,5.03
2019-02-11T08:54:49.772Z,5.40
2019-02-11T08:57:19.171Z,5.37
2019-02-11T08:59:50.178Z,5.23
2019-02-11T09:02:19.677Z,5.37
2019-02-11T09:04:49.084Z,5.97
2019-02-11T09:07:19.832Z,5.10
2019-02-11T09:09:50.403Z,5.67
2019-02-11T09:12:19.807Z,5.50
2019-02-11T09:14:50.720Z,5.13
2019-02-11T09:17:21.236Z,5.33
2019-02-11T09:19:50.995Z,5.50
2019-02-11T09:22:20.587Z,4.93
2019-02-11T09:24:49.968Z,4.83
2019-02-11T09:27:19.373Z,4.80
2019-02-11T09:29:50.082Z,6.00
2019-02-11T09:32:22.394Z,5.07
2019-02-11T09:34:51.809Z,5.27
2019-02-11T09:37:21.319Z,5.20
2019-02-11T09:39:50.729Z,5.23
2019-02-11T09:42:21.953Z,5.57
2019-02-11T09:44:51.709Z,4.93
2019-02-11T09:47:23.958Z,5.57
2019-02-11T09:50:11.976Z,5.73
2019-02-11T09:52:42.917Z,4.85
2019-02-11T09:55:34.362Z,4.90
2019-02-11T09:58:03.946Z,5.47
2019-02-11T10:00:33.468Z,5.73
2019-02-11T10:03:03.337Z,5.60
2019-02-11T10:05:34.601Z,5.83
2019-02-11T10:08:04.009Z,5.65
2019-02-11T10:10:33.560Z,5.62
2019-02-11T10:13:03.959Z,5.07
2019-02-11T10:15:34.568Z,5.33
2019-02-11T10:18:06.770Z,5.65
2019-02-11T10:20:38.850Z,5.83
2019-02-11T10:23:08.479Z,5.67
2019-02-11T10:25:37.928Z,5.45
2019-02-11T10:28:13.681Z,5.30
2019-02-11T10:30:43.087Z,5.55
2019-02-11T10:33:14.317Z,4.87
2019-02-11T10:35:44.150Z,5.73
2019-02-11T10:38:15.347Z,5.07
2019-02-11T10:40:45.786Z,5.40
2019-02-11T10:43:16.197Z,4.93
2019-02-11T10:45:45.605Z,4.97
2019-02-11T10:48:16.783Z,6.13
2019-02-11T10:50:47.290Z,5.10
2019-02-11T10:53:16.684Z,4.70
2019-02-11T10:55:47.405Z,5.40
2019-02-11T10:58:18.458Z,4.37
2019-02-11T11:00:50.596Z,4.60
2019-02-11T11:03:20.240Z,4.73
2019-02-11T11:05:51.891Z,4.22
2019-02-11T11:08:22.716Z,4.43
2019-02-11T11:10:52.596Z,3.87
2019-02-11T11:13:22.048Z,3.53
2019-02-11T11:15:51.589Z,3.40
2019-02-11T11:18:21.093Z,3.70
2019-02-11T11:20:53.151Z,3.73
2019-02-11T11:23:24.275Z,3.47
2019-02-11T11:25:55.224Z,3.53
2019-02-11T11:28:27.746Z,3.85
2019-02-11T11:31:00.579Z,3.73
2019-02-11T11:33:30.342Z,3.43
2019-02-11T11:36:01.349Z,2.80
2019-02-11T11:38:31.950Z,2.73
2019-02-11T11:41:03.464Z,2.73
2019-02-11T11:43:33.060Z,2.22
2019-02-11T11:46:05.466Z,2.50
2019-02-11T11:48:35.011Z,2.87
2019-02-11T11:51:04.751Z,2.73
2019-02-11T11:53:34.505Z,2.23
2019-02-11T11:56:05.506Z,1.80
2019-02-11T11:58:35.035Z,2.43
2019-02-11T12:01:04.825Z,2.00
2019-02-11T12:03:37.633Z,1.77
2019-02-11T12:06:07.060Z,2.07
2019-02-11T12:08:37.686Z,1.80
2019-02-11T12:11:07.605Z,1.90
2019-02-11T12:13:38.263Z,1.40
2019-02-11T12:16:10.379Z,1.70
2019-02-11T12:18:40.312Z,1.65
2019-02-11T12:21:09.701Z,1.90
2019-02-11T12:23:41.154Z,2.57
2019-02-11T12:26:11.911Z,2.62
2019-02-11T12:28:41.421Z,2.37
2019-02-11T12:31:13.760Z,3.03
2019-02-11T12:33:44.529Z,2.70
2019-02-11T12:36:16.480Z,2.70
2019-02-11T12:38:48.383Z,4.10
2019-02-11T12:41:18.061Z,3.10
2019-02-11T12:43:48.650Z,3.53
2019-02-11T12:46:19.626Z,3.00
2019-02-11T12:48:49.170Z,3.57
2019-02-11T12:51:18.759Z,3.37
2019-02-11T12:53:50.014Z,3.77
2019-02-11T12:56:20.551Z,2.70
2019-02-11T12:58:50.090Z,3.07
2019-02-11T13:01:20.583Z,3.27
2019-02-11T13:03:53.153Z,3.63
2019-02-11T13:06:22.773Z,2.53
2019-02-11T13:08:52.299Z,3.60
2019-02-11T13:11:21.846Z,3.70
2019-02-11T13:13:51.365Z,3.47
2019-02-11T13:16:22.636Z,3.37
2019-02-11T13:18:52.745Z,3.10
2019-02-11T13:21:23.675Z,3.00
2019-02-11T13:23:53.498Z,3.17
2019-02-11T13:26:23.144Z,3.20
2019-02-11T13:28:53.655Z,2.77
2019-02-11T13:31:23.206Z,2.87
2019-02-11T13:33:52.939Z,2.73
2019-02-11T13:36:27.101Z,2.90
2019-02-11T13:38:59.145Z,2.50
2019-02-11T13:41:28.618Z,2.83
2019-02-11T13:43:58.041Z,2.63
2019-02-11T13:46:29.358Z,3.00
2019-02-11T13:48:59.354Z,2.70
2019-02-11T13:51:30.984Z,2.30
2019-02-11T13:54:00.548Z,2.70
2019-02-11T13:56:30.234Z,2.63
2019-02-11T13:58:59.668Z,2.33
2019-02-11T14:01:29.128Z,2.37
2019-02-11T14:03:58.650Z,2.93
2019-02-11T14:06:28.036Z,2.20
2019-02-11T14:08:57.465Z,2.77
2019-02-11T14:11:27.276Z,2.60
2019-02-11T14:14:02.833Z,2.33
2019-02-11T14:16:29.614Z,2.20
2019-02-11T14:19:00.426Z,2.80
2019-02-11T14:21:30.898Z,2.20
2019-02-11T14:24:00.961Z,2.60
2019-02-11T14:26:33.861Z,2.93
2019-02-11T14:29:06.958Z,2.30
2019-02-11T14:31:36.907Z,2.85
2019-02-11T14:34:10.258Z,2.60
2019-02-11T14:36:43.074Z,2.63
2019-02-11T14:39:13.425Z,2.42
2019-02-11T14:41:44.451Z,2.33
2019-02-11T14:44:14.275Z,2.60
2019-02-11T14:46:43.838Z,2.40
2019-02-11T14:49:14.594Z,2.60
2019-02-11T14:51:44.942Z,2.00
2019-02-11T14:54:14.510Z,2.50
2019-02-11T14:56:45.764Z,2.45
2019-02-11T14:59:15.217Z,2.80
2019-02-11T15:01:46.100Z,2.33
2019-02-11T15:04:15.522Z,2.40
2019-02-11T15:06:44.967Z,2.93
2019-02-11T15:09:15.908Z,2.50
2019-02-11T15:11:46.364Z,2.63
2019-02-11T15:14:16.976Z,3.00
2019-02-11T15:16:46.361Z,3.35
2019-02-11T15:19:15.924Z,2.83
2019-02-11T15:21:45.305Z,3.23
2019-02-11T15:24:17.524Z,2.90
2019-02-11T15:26:48.979Z,3.60
2019-02-11T15:29:18.377Z,3.30
2019-02-11T15:31:48.225Z,3.50
2019-02-11T15:34:17.921Z,3.30
2019-02-11T15:36:48.855Z,3.87
2019-02-11T15:39:19.285Z,3.73
2019-02-11T15:41:50.841Z,3.50
2019-02-11T15:44:20.603Z,4.13
2019-02-11T15:46:50.168Z,3.77
2019-02-11T15:49:19.637Z,4.47
2019-02-11T15:51:49.373Z,4.23
2019-02-11T15:54:19.911Z,3.80
2019-02-11T15:56:50.499Z,4.10
2019-02-11T15:59:20.972Z,4.10
2019-02-11T16:01:53.399Z,4.40
2019-02-11T16:04:22.951Z,3.90
2019-02-11T16:06:53.899Z,3.90
2019-02-11T16:09:24.483Z,3.57
2019-02-11T16:11:54.804Z,3.27
2019-02-11T16:14:24.187Z,3.47
2019-02-11T16:16:55.416Z,3.60
2019-02-11T16:19:25.059Z,4.87
2019-02-11T16:21:54.416Z,3.80
2019-02-11T16:24:23.865Z,4.20
2019-02-11T16:26:53.261Z,3.87
2019-02-11T16:29:22.766Z,3.80
2019-02-11T16:32:00.601Z,3.30
2019-02-11T16:34:25.220Z,4.17
2019-02-11T16:36:55.666Z,4.27
2019-02-11T16:39:25.131Z,4.00
2019-02-11T16:41:56.757Z,3.70
2019-02-11T16:44:27.066Z,3.53
2019-02-11T16:46:58.164Z,4.10
2019-02-11T16:49:27.780Z,3.33
2019-02-11T16:51:57.238Z,3.70
2019-02-11T16:54:28.110Z,3.73
2019-02-11T16:56:57.771Z,3.67
2019-02-11T16:59:29.029Z,3.90
2019-02-11T17:01:58.447Z,3.60
2019-02-11T17:04:27.880Z,3.80
2019-02-11T17:06:57.360Z,3.87
2019-02-11T17:09:26.752Z,3.70
2019-02-11T17:11:57.193Z,3.62
2019-02-11T17:14:26.818Z,3.90
2019-02-11T17:16:56.755Z,3.70
2019-02-11T17:19:26.978Z,3.50
2019-02-11T17:21:57.695Z,3.87
2019-02-11T17:24:28.833Z,3.27
2019-02-11T17:26:58.451Z,3.83
2019-02-11T17:29:27.947Z,3.33
2019-02-11T17:31:57.339Z,3.37
2019-02-11T17:34:28.505Z,3.20
2019-02-11T17:36:57.883Z,4.13
2019-02-11T17:39:28.380Z,3.37
2019-02-11T17:41:57.917Z,2.93
2019-02-11T17:44:27.391Z,3.13
2019-02-11T17:46:56.879Z,4.03
2019-02-11T17:49:27.415Z,3.37
2019-02-11T17:51:56.908Z,3.80
2019-02-11T17:54:27.788Z,3.27
2019-02-11T17:56:58.268Z,3.60
2019-02-11T17:59:27.691Z,4.12
2019-02-11T18:02:00.768Z,3.47
2019-02-11T18:04:31.635Z,3.47
2019-02-11T18:07:01.033Z,3.58
2019-02-11T18:09:31.547Z,3.60
2019-02-11T18:12:01.273Z,4.17
2019-02-11T18:14:30.698Z,3.40
2019-02-11T18:17:01.574Z,3.20
2019-02-11T18:19:32.160Z,3.40
2019-02-11T18:22:01.725Z,3.47
2019-02-11T18:24:31.221Z,3.90
2019-02-11T18:27:00.728Z,3.70
2019-02-11T18:29:30.120Z,3.90
2019-02-11T18:32:01.235Z,3.70
2019-02-11T18:34:30.796Z,3.80
2019-02-11T18:37:01.390Z,4.50
2019-02-11T18:39:32.493Z,3.90
2019-02-11T18:42:03.757Z,3.60
2019-02-11T18:44:34.619Z,4.50
2019-02-11T18:47:04.006Z,3.87
2019-02-11T18:49:34.734Z,5.67
2019-02-11T18:52:05.834Z,3.95
2019-02-11T18:54:35.539Z,3.65
2019-02-11T18:57:06.320Z,4.20
2019-02-11T18:59:35.996Z,3.50
2019-02-11T19:02:05.513Z,3.57
2019-02-11T19:04:35.018Z,4.33
2019-02-11T19:07:04.508Z,3.62
2019-02-11T19:09:34.492Z,4.00
2019-02-11T19:12:03.973Z,3.90
2019-02-11T19:14:34.696Z,3.47
2019-02-11T19:17:05.417Z,3.27
2019-02-11T19:19:42.962Z,3.70
2019-02-11T19:22:07.913Z,3.80
2019-02-11T19:24:37.365Z,4.40
2019-02-11T19:27:08.884Z,4.03
2019-02-11T19:29:38.300Z,3.97
2019-02-11T19:32:09.018Z,4.10
2019-02-11T19:34:38.914Z,3.50
2019-02-11T19:37:08.542Z,3.77
2019-02-11T19:39:38.985Z,3.37
2019-02-11T19:42:10.053Z,3.67
2019-02-11T19:44:39.554Z,10.10
2019-02-11T19:47:10.746Z,3.77
2019-02-11T19:49:40.468Z,3.00
2019-02-11T19:52:09.904Z,3.17
2019-02-11T19:54:39.787Z,3.53
2019-02-11T19:57:11.352Z,2.83
2019-02-11T19:59:42.640Z,2.98
2019-02-11T20:02:15.264Z,3.27
2019-02-11T20:04:45.005Z,2.80
2019-02-11T20:07:15.509Z,3.50
2019-02-11T20:09:45.043Z,4.10
2019-02-11T20:12:15.755Z,3.30
2019-02-11T20:14:45.205Z,3.13
2019-02-11T20:17:16.319Z,2.93
2019-02-11T20:19:45.995Z,3.33
2019-02-11T20:22:15.671Z,2.93
2019-02-11T20:24:46.958Z,3.40
2019-02-11T20:27:17.666Z,3.53
2019-02-11T20:29:47.169Z,3.90
2019-02-11T20:32:17.571Z,3.37
2019-02-11T20:34:49.026Z,2.97
2019-02-11T20:37:18.447Z,3.00
2019-02-11T20:39:47.923Z,3.13
2019-02-11T20:42:17.544Z,3.63
2019-02-11T20:44:47.047Z,3.07
2019-02-11T20:47:16.525Z,3.40
2019-02-11T20:49:46.181Z,4.33
2019-02-11T20:52:17.395Z,3.03
2019-02-11T20:54:46.935Z,3.37
2019-02-11T20:57:17.664Z,3.20
2019-02-11T20:59:47.320Z,2.90
2019-02-11T21:02:17.717Z,3.53
2019-02-11T21:04:47.330Z,3.30
2019-02-11T21:07:17.963Z,2.70
2019-02-11T21:09:47.392Z,3.27
2019-02-11T21:12:17.997Z,3.53
2019-02-11T21:14:47.395Z,3.57
2019-02-11T21:17:16.786Z,3.30
2019-02-11T21:19:46.351Z,3.23
2019-02-11T21:22:15.914Z,2.67
2019-02-11T21:24:45.317Z,2.80
2019-02-11T21:27:15.867Z,2.70
2019-02-11T21:29:45.373Z,2.97
2019-02-11T21:32:14.948Z,3.00
2019-02-11T21:34:45.517Z,2.77
2019-02-11T21:37:16.476Z,2.95
2019-02-11T21:39:47.939Z,3.40
2019-02-11T21:42:17.538Z,2.90
2019-02-11T21:44:46.972Z,3.10
2019-02-11T21:47:16.445Z,3.20
2019-02-11T21:49:48.617Z,3.30
2019-02-11T21:52:19.816Z,2.80
2019-02-11T21:54:50.349Z,3.10
2019-02-11T21:57:20.909Z,3.23
2019-02-11T21:59:51.417Z,3.30
2019-02-11T22:02:20.803Z,3.10
2019-02-11T22:04:50.894Z,3.23
2019-02-11T22:07:20.393Z,3.30
2019-02-11T22:09:51.034Z,3.60
2019-02-11T22:12:20.750Z,3.47
2019-02-11T22:14:51.456Z,2.72
2019-02-11T22:17:22.311Z,3.13
2019-02-11T22:19:53.058Z,3.30
2019-02-11T22:22:22.657Z,3.10
2019-02-11T22:24:52.088Z,3.13
2019-02-11T22:27:23.612Z,2.67
2019-02-11T22:29:53.003Z,2.73
2019-02-11T22:32:26.055Z,3.23
2019-02-11T22:34:55.546Z,3.13
2019-02-11T22:37:24.979Z,2.80
2019-02-11T22:39:57.535Z,3.37
2019-02-11T22:42:28.055Z,2.90
2019-02-11T22:44:58.925Z,2.70
2019-02-11T22:47:28.337Z,3.17
2019-02-11T22:49:57.907Z,2.90
2019-02-11T22:52:27.322Z,2.30
2019-02-11T22:54:57.436Z,2.60
2019-02-11T22:57:28.918Z,2.43
2019-02-11T22:59:59.318Z,3.10
2019-02-11T23:02:32.384Z,2.43
2019-02-11T23:05:03.438Z,2.90
2019-02-11T23:07:32.839Z,2.70
2019-02-11T23:10:02.724Z,2.83
2019-02-11T23:12:32.225Z,2.40
2019-02-11T23:15:01.831Z,2.35
2019-02-11T23:17:31.243Z,2.27
2019-02-11T23:20:02.136Z,2.40
2019-02-11T23:22:31.785Z,2.20
2019-02-11T23:25:03.312Z,2.40
2019-02-11T23:27:32.697Z,2.27
2019-02-11T23:30:02.100Z,2.50
2019-02-11T23:32:31.744Z,2.17
2019-02-11T23:35:01.168Z,2.27
2019-02-11T23:37:31.585Z,2.30
2019-02-11T23:40:01.288Z,2.23
2019-02-11T23:42:32.315Z,2.73
2019-02-11T23:45:02.826Z,2.52
2019-02-11T23:47:33.475Z,2.90
2019-02-11T23:50:02.882Z,2.10
2019-02-11T23:52:35.293Z,2.40
2019-02-11T23:55:05.166Z,2.65
2019-02-11T23:57:35.811Z,2.47
